createdAt,value
2022-10-19T00:01:33.069Z,12.13
2022-10-19T00:04:35.050Z,12.12
2022-10-19T00:07:37.457Z,12.13
2022-10-19T00:10:40.942Z,12.16
2022-10-19T00:13:43.887Z,11.96
2022-10-19T00:16:47.626Z,12.07
2022-10-19T00:19:49.829Z,12.01
2022-10-19T00:22:51.857Z,12.06
2022-10-19T00:25:57.520Z,11.96
2022-10-19T00:29:00.048Z,11.97
2022-10-19T00:32:02.360Z,11.84
2022-10-19T00:35:04.627Z,11.85
2022-10-19T00:38:06.892Z,11.81
2022-10-19T00:41:09.118Z,11.75
2022-10-19T00:44:15.794Z,11.73
2022-10-19T00:47:19.561Z,11.67
2022-10-19T00:50:21.879Z,11.63
2022-10-19T00:53:26.621Z,11.61
2022-10-19T00:56:28.904Z,11.41
2022-10-19T00:59:32.312Z,11.44
2022-10-19T01:02:35.539Z,11.41
2022-10-19T01:05:38.749Z,11.39
2022-10-19T01:08:41.026Z,11.38
2022-10-19T01:11:48.854Z,11.31
2022-10-19T01:15:12.805Z,11.22
2022-10-19T01:18:27.245Z,11.35
2022-10-19T01:21:34.777Z,11.35
2022-10-19T01:24:51.570Z,11.34
2022-10-19T01:28:14.810Z,11.40
2022-10-19T01:31:49.659Z,11.39
2022-10-19T01:35:03.096Z,11.30
2022-10-19T01:38:26.972Z,11.33
2022-10-19T01:41:40.240Z,11.26
2022-10-19T01:44:44.571Z,11.27
2022-10-19T01:48:03.318Z,11.20
2022-10-19T01:51:15.144Z,11.20
2022-10-19T01:54:18.222Z,11.26
2022-10-19T01:57:26.896Z,11.26
2022-10-19T02:00:30.028Z,11.21
2022-10-19T02:03:34.352Z,11.22
2022-10-19T02:06:36.864Z,11.27
2022-10-19T02:09:38.874Z,11.29
2022-10-19T02:12:41.955Z,11.25
2022-10-19T02:15:47.746Z,11.19
2022-10-19T02:18:51.284Z,11.13
2022-10-19T02:21:54.097Z,11.12
2022-10-19T02:24:56.410Z,11.03
2022-10-19T02:27:58.631Z,11.05
2022-10-19T02:31:01.304Z,11.06
2022-10-19T02:34:03.501Z,10.98
2022-10-19T02:37:06.515Z,11.01
2022-10-19T02:40:09.670Z,10.88
2022-10-19T02:43:14.452Z,10.87
2022-10-19T02:46:36.604Z,10.79
2022-10-19T02:49:39.563Z,10.75
2022-10-19T02:52:41.697Z,10.70
2022-10-19T02:55:44.501Z,10.77
2022-10-19T02:58:46.525Z,10.73
2022-10-19T03:01:49.113Z,10.67
2022-10-19T03:04:51.424Z,10.69
2022-10-19T03:07:53.732Z,10.57
2022-10-19T03:10:59.011Z,10.64
2022-10-19T03:14:01.267Z,10.67
2022-10-19T03:17:04.143Z,10.70
2022-10-19T03:20:07.055Z,10.68
2022-10-19T03:23:09.121Z,10.60
2022-10-19T03:26:15.563Z,10.58
2022-10-19T03:29:17.577Z,10.67
2022-10-19T03:32:19.837Z,10.65
2022-10-19T03:35:21.793Z,10.66
2022-10-19T03:38:24.025Z,10.60
2022-10-19T03:41:28.541Z,10.63
2022-10-19T03:44:30.675Z,10.57
2022-10-19T03:47:33.523Z,10.64
2022-10-19T03:50:36.023Z,10.69
2022-10-19T03:53:38.501Z,10.68
2022-10-19T03:56:41.153Z,10.69
2022-10-19T03:59:43.260Z,10.68
2022-10-19T04:02:45.419Z,10.70
2022-10-19T04:05:47.477Z,10.72
2022-10-19T04:08:50.207Z,10.72
2022-10-19T04:11:52.283Z,10.78
2022-10-19T04:14:57.204Z,10.82
2022-10-19T04:17:59.777Z,10.82
2022-10-19T04:21:04.433Z,10.80
2022-10-19T04:24:09.327Z,10.76
2022-10-19T04:27:11.470Z,10.85
2022-10-19T04:30:13.540Z,10.86
2022-10-19T04:33:15.885Z,10.82
2022-10-19T04:36:18.254Z,10.93
2022-10-19T04:39:20.638Z,10.79
2022-10-19T04:42:22.679Z,10.78
2022-10-19T04:45:24.885Z,10.77
2022-10-19T04:48:26.822Z,10.81
2022-10-19T04:51:29.183Z,10.87
2022-10-19T04:54:31.241Z,10.91
2022-10-19T04:57:33.639Z,10.88
2022-10-19T05:00:38.782Z,10.83
2022-10-19T05:03:41.185Z,10.83
2022-10-19T05:06:43.251Z,10.79
2022-10-19T05:09:45.588Z,10.86
2022-10-19T05:12:47.617Z,10.96
2022-10-19T05:15:57.305Z,10.75
2022-10-19T05:18:59.827Z,10.74
2022-10-19T05:22:02.249Z,10.85
2022-10-19T05:25:05.183Z,10.91
2022-10-19T05:28:07.478Z,10.85
2022-10-19T05:31:15.377Z,10.88
2022-10-19T05:34:17.771Z,10.86
2022-10-19T05:37:19.947Z,10.79
2022-10-19T05:40:22.150Z,10.78
2022-10-19T05:43:24.177Z,10.82
2022-10-19T05:46:28.499Z,10.78
2022-10-19T05:49:30.589Z,10.76
2022-10-19T05:52:33.014Z,10.70
2022-10-19T05:55:36.146Z,10.67
2022-10-19T05:58:38.683Z,10.58
2022-10-19T06:01:40.741Z,10.70
2022-10-19T06:04:43.200Z,10.70
2022-10-19T06:07:45.317Z,10.81
2022-10-19T06:10:48.527Z,10.68
2022-10-19T06:13:52.010Z,10.70
2022-10-19T06:16:54.301Z,10.70
2022-10-19T06:19:56.320Z,10.69
2022-10-19T06:22:58.645Z,10.82
2022-10-19T06:26:05.986Z,10.77
2022-10-19T06:29:08.288Z,10.83
2022-10-19T06:32:10.333Z,10.79
2022-10-19T06:35:12.645Z,10.77
2022-10-19T06:38:14.800Z,10.83
2022-10-19T06:41:17.552Z,10.80
2022-10-19T06:44:19.799Z,10.91
2022-10-19T06:47:22.121Z,10.91
2022-10-19T06:50:24.263Z,10.85
2022-10-19T06:53:27.229Z,10.94
2022-10-19T06:56:29.703Z,10.93
2022-10-19T06:59:31.983Z,11.05
2022-10-19T07:02:34.227Z,11.18
2022-10-19T07:05:36.496Z,11.15
2022-10-19T07:08:40.662Z,11.13
2022-10-19T07:11:46.136Z,11.10
2022-10-19T07:14:48.439Z,11.13
2022-10-19T07:17:50.665Z,11.16
2022-10-19T07:21:01.067Z,11.16
2022-10-19T07:24:03.989Z,11.18
2022-10-19T07:27:06.376Z,11.24
2022-10-19T07:30:08.960Z,11.27
2022-10-19T07:33:11.062Z,11.21
2022-10-19T07:36:14.149Z,11.31
2022-10-19T07:39:17.396Z,11.33
2022-10-19T07:42:19.784Z,11.41
2022-10-19T07:45:21.920Z,11.38
2022-10-19T07:48:24.505Z,11.49
2022-10-19T07:54:29.820Z,11.62
2022-10-19T07:57:31.796Z,11.57
2022-10-19T08:00:34.125Z,11.44
2022-10-19T08:04:31.758Z,11.30
2022-10-19T08:06:58.837Z,11.17
2022-10-19T08:10:00.910Z,11.18
2022-10-19T08:13:03.156Z,11.14
2022-10-19T08:16:06.404Z,11.11
2022-10-19T08:19:14.125Z,11.19
2022-10-19T08:22:16.139Z,11.18
2022-10-19T08:25:18.580Z,11.24
2022-10-19T08:28:20.607Z,11.23
2022-10-19T08:31:23.046Z,11.25
2022-10-19T08:34:25.458Z,11.31
2022-10-19T08:37:43.792Z,11.44
2022-10-19T08:40:47.394Z,11.31
2022-10-19T08:44:09.180Z,11.35
2022-10-19T08:47:31.409Z,11.40
2022-10-19T08:50:40.128Z,11.33
2022-10-19T08:54:02.991Z,11.39
2022-10-19T08:57:29.280Z,11.40
2022-10-19T09:01:00.094Z,11.48
2022-10-19T09:04:10.488Z,11.71
2022-10-19T09:07:26.521Z,11.87
2022-10-19T09:10:38.280Z,12.11
2022-10-19T09:14:00.457Z,11.96
2022-10-19T09:17:13.100Z,11.95
2022-10-19T09:20:21.292Z,12.18
2022-10-19T09:23:30.410Z,12.27
2022-10-19T09:26:55.513Z,12.54
2022-10-19T09:29:59.642Z,12.55
2022-10-19T09:33:02.604Z,12.53
2022-10-19T09:36:06.851Z,12.21
2022-10-19T09:39:13.729Z,11.96
2022-10-19T09:42:25.960Z,11.65
2022-10-19T09:45:53.119Z,11.38
2022-10-19T09:48:55.438Z,11.15
2022-10-19T09:51:57.401Z,11.17
2022-10-19T09:55:06.874Z,11.15
2022-10-19T09:58:14.844Z,11.16
2022-10-19T10:01:41.980Z,11.22
2022-10-19T10:05:13.494Z,11.25
2022-10-19T10:08:19.538Z,11.35
2022-10-19T10:11:25.875Z,11.33
2022-10-19T10:14:33.339Z,11.48
2022-10-19T10:17:37.289Z,11.69
2022-10-19T10:21:01.439Z,12.01
2022-10-19T10:24:16.704Z,12.27
2022-10-19T10:27:30.038Z,12.20
2022-10-19T10:30:36.504Z,11.98
2022-10-19T10:33:46.267Z,11.82
2022-10-19T10:36:54.011Z,11.75
2022-10-19T10:40:00.482Z,11.86
2022-10-19T10:43:09.546Z,12.05
2022-10-19T10:46:19.573Z,12.36
2022-10-19T10:49:25.094Z,12.60
2022-10-19T10:52:29.350Z,12.55
2022-10-19T10:55:32.884Z,12.82
2022-10-19T10:58:53.621Z,13.19
2022-10-19T11:02:14.522Z,13.59
2022-10-19T11:05:23.664Z,13.83
2022-10-19T11:08:50.574Z,13.86
2022-10-19T11:11:56.127Z,13.94
2022-10-19T11:15:08.830Z,14.11
2022-10-19T11:18:22.962Z,14.24
2022-10-19T11:21:51.190Z,14.12
2022-10-19T11:25:32.525Z,14.04
2022-10-19T11:28:46.784Z,14.08
2022-10-19T11:31:56.895Z,13.85
2022-10-19T11:35:17.768Z,14.03
2022-10-19T11:38:57.444Z,14.13
2022-10-19T11:42:41.341Z,14.00
2022-10-19T11:45:52.506Z,13.69
2022-10-19T11:49:36.506Z,13.74
2022-10-19T11:53:03.267Z,13.52
2022-10-19T11:56:44.835Z,13.60
2022-10-19T12:00:38.710Z,13.41
2022-10-19T12:03:47.538Z,13.40
2022-10-19T12:07:31.532Z,13.51
2022-10-19T12:10:48.510Z,13.16
2022-10-19T12:13:57.159Z,13.21
2022-10-19T12:17:08.753Z,13.00
2022-10-19T12:20:20.113Z,12.97
2022-10-19T12:23:29.420Z,13.37
2022-10-19T12:26:34.953Z,13.70
2022-10-19T12:29:41.061Z,14.09
2022-10-19T12:33:03.653Z,14.25
2022-10-19T12:36:36.319Z,14.38
2022-10-19T12:39:43.534Z,14.25
2022-10-19T12:42:54.428Z,14.13
2022-10-19T12:46:11.229Z,13.84
2022-10-19T12:49:37.158Z,13.93
2022-10-19T12:52:48.172Z,14.22
2022-10-19T12:56:08.970Z,14.27
2022-10-19T12:59:22.954Z,14.08
2022-10-19T13:02:29.606Z,14.11
2022-10-19T13:05:33.542Z,14.11
2022-10-19T13:08:46.758Z,14.15
2022-10-19T13:12:21.351Z,13.93
2022-10-19T13:15:35.209Z,13.54
2022-10-19T13:19:15.719Z,13.63
2022-10-19T13:22:26.691Z,13.73
2022-10-19T13:25:35.418Z,13.87
2022-10-19T13:28:38.637Z,14.04
2022-10-19T13:31:41.122Z,14.26
2022-10-19T13:34:43.350Z,14.32
2022-10-19T13:37:45.728Z,14.09
2022-10-19T13:40:47.740Z,14.03
2022-10-19T13:43:51.144Z,13.82
2022-10-19T13:47:14.982Z,13.50
2022-10-19T13:50:25.737Z,12.98
2022-10-19T13:53:57.764Z,12.69
2022-10-19T13:57:38.697Z,12.52
2022-10-19T14:01:18.161Z,11.97
2022-10-19T14:04:43.568Z,11.67
2022-10-19T14:08:04.362Z,11.64
2022-10-19T14:11:16.202Z,11.62
2022-10-19T14:14:22.247Z,11.72
2022-10-19T14:17:34.091Z,11.93
2022-10-19T14:20:38.680Z,11.83
2022-10-19T14:23:41.162Z,11.88
2022-10-19T14:26:43.245Z,11.73
2022-10-19T14:29:47.759Z,11.42
2022-10-19T14:32:49.875Z,11.21
2022-10-19T14:35:52.940Z,11.21
2022-10-19T14:38:56.169Z,10.98
2022-10-19T14:42:04.656Z,10.92
2022-10-19T14:45:18.310Z,10.72
2022-10-19T14:48:20.698Z,10.77
2022-10-19T14:51:30.510Z,10.65
2022-10-19T14:54:38.942Z,10.54
2022-10-19T14:57:43.047Z,10.24
2022-10-19T15:00:48.011Z,10.29
2022-10-19T15:03:50.545Z,10.16
2022-10-19T15:06:54.028Z,10.05
2022-10-19T15:09:58.687Z,10.05
2022-10-19T15:13:03.871Z,9.96
2022-10-19T15:16:06.274Z,9.83
2022-10-19T15:19:17.403Z,9.80
2022-10-19T15:22:41.669Z,9.82
2022-10-19T15:25:43.968Z,9.83
2022-10-19T15:28:47.428Z,9.74
2022-10-19T15:31:50.591Z,9.77
2022-10-19T15:34:52.732Z,9.71
2022-10-19T15:38:27.396Z,9.53
2022-10-19T15:41:32.525Z,9.65
2022-10-19T15:44:44.421Z,9.68
2022-10-19T15:48:25.136Z,9.61
2022-10-19T15:51:27.712Z,9.51
2022-10-19T15:54:30.055Z,9.46
2022-10-19T15:57:35.007Z,9.51
2022-10-19T16:00:38.139Z,9.47
2022-10-19T16:03:40.502Z,9.24
2022-10-19T16:06:45.257Z,9.19
2022-10-19T16:09:47.675Z,9.07
2022-10-19T16:12:49.865Z,8.97
2022-10-19T16:16:01.382Z,9.02
2022-10-19T16:19:13.435Z,8.86
2022-10-19T16:22:17.157Z,8.92
2022-10-19T16:25:19.886Z,8.80
2022-10-19T16:28:23.253Z,8.78
2022-10-19T16:31:25.347Z,8.67
2022-10-19T16:34:27.973Z,8.60
2022-10-19T16:37:30.038Z,8.63
2022-10-19T16:40:32.814Z,8.68
2022-10-19T16:43:35.668Z,8.60
2022-10-19T16:46:38.610Z,8.49
2022-10-19T16:49:40.671Z,8.43
2022-10-19T16:52:43.147Z,8.45
2022-10-19T16:55:45.937Z,8.50
2022-10-19T16:58:49.590Z,8.41
2022-10-19T17:01:52.251Z,8.34
2022-10-19T17:04:54.495Z,8.37
2022-10-19T17:07:57.971Z,8.37
2022-10-19T17:11:17.022Z,8.33
2022-10-19T17:14:19.195Z,8.33
2022-10-19T17:17:21.599Z,8.33
2022-10-19T17:20:23.827Z,8.26
2022-10-19T17:23:26.298Z,8.28
2022-10-19T17:26:31.315Z,8.20
2022-10-19T17:29:33.913Z,7.99
2022-10-19T17:32:36.283Z,8.06
2022-10-19T17:35:38.703Z,8.08
2022-10-19T17:38:41.723Z,8.02
2022-10-19T17:41:45.662Z,7.97
2022-10-19T17:44:48.312Z,8.03
2022-10-19T17:47:50.720Z,7.90
2022-10-19T17:50:57.674Z,7.80
2022-10-19T17:54:02.624Z,7.83
2022-10-19T17:57:04.843Z,7.78
2022-10-19T18:00:08.130Z,7.70
2022-10-19T18:03:14.516Z,7.60
2022-10-19T18:06:23.628Z,7.49
2022-10-19T18:09:26.629Z,7.46
2022-10-19T18:12:29.543Z,7.36
2022-10-19T18:15:31.703Z,7.33
2022-10-19T18:18:36.943Z,7.32
2022-10-19T18:21:40.816Z,7.30
2022-10-19T18:24:43.243Z,7.26
2022-10-19T18:27:45.507Z,7.26
2022-10-19T18:30:47.790Z,7.13
2022-10-19T18:33:57.285Z,7.09
2022-10-19T18:37:00.826Z,7.07
2022-10-19T18:40:03.053Z,7.04
2022-10-19T18:43:06.635Z,7.05
2022-10-19T18:46:10.474Z,6.99
2022-10-19T18:49:13.282Z,6.79
2022-10-19T18:52:17.266Z,6.75
2022-10-19T18:55:21.798Z,6.74
2022-10-19T18:58:24.371Z,6.72
2022-10-19T19:01:28.507Z,6.72
2022-10-19T19:04:30.707Z,6.65
2022-10-19T19:07:33.371Z,6.64
2022-10-19T19:10:35.622Z,6.63
2022-10-19T19:13:39.042Z,6.46
2022-10-19T19:16:42.909Z,6.47
2022-10-19T19:19:45.384Z,6.40
2022-10-19T19:22:47.587Z,6.26
2022-10-19T19:25:50.042Z,6.15
2022-10-19T19:28:52.317Z,6.14
2022-10-19T19:31:54.687Z,6.17
2022-10-19T19:34:56.922Z,6.11
2022-10-19T19:38:00.056Z,6.05
2022-10-19T19:41:07.670Z,6.12
2022-10-19T19:44:10.221Z,6.14
2022-10-19T19:47:12.641Z,6.10
2022-10-19T19:50:15.363Z,6.04
2022-10-19T19:53:17.987Z,5.92
2022-10-19T19:56:21.495Z,5.95
2022-10-19T19:59:24.113Z,5.93
2022-10-19T20:02:26.957Z,5.95
2022-10-19T20:05:29.735Z,5.99
2022-10-19T20:08:32.589Z,5.93
2022-10-19T20:11:37.250Z,5.95
2022-10-19T20:14:42.645Z,5.88
2022-10-19T20:17:45.795Z,5.93
2022-10-19T20:20:49.268Z,5.97
2022-10-19T20:23:55.334Z,5.96
2022-10-19T20:26:57.828Z,5.92
2022-10-19T20:29:59.981Z,5.79
2022-10-19T20:33:20.774Z,5.79
2022-10-19T20:36:24.754Z,5.79
2022-10-19T20:39:27.312Z,5.74
2022-10-19T20:42:29.517Z,5.74
2022-10-19T20:45:31.989Z,5.62
2022-10-19T20:48:34.811Z,5.65
2022-10-19T20:51:38.012Z,5.49
2022-10-19T20:54:40.724Z,5.53
2022-10-19T20:57:43.202Z,5.53
2022-10-19T21:00:45.269Z,5.54
2022-10-19T21:03:59.187Z,5.60
2022-10-19T21:07:01.334Z,5.59
2022-10-19T21:10:03.847Z,5.62
2022-10-19T21:13:05.859Z,5.53
2022-10-19T21:16:10.051Z,5.53
2022-10-19T21:19:17.525Z,5.56
2022-10-19T21:22:19.802Z,5.48
2022-10-19T21:25:21.891Z,5.36
2022-10-19T21:28:24.115Z,5.40
2022-10-19T21:31:27.019Z,5.34
2022-10-19T21:34:31.063Z,5.30
2022-10-19T21:37:33.322Z,5.30
2022-10-19T21:40:36.526Z,5.15
2022-10-19T21:43:38.754Z,5.16
2022-10-19T21:46:42.999Z,5.16
2022-10-19T21:49:45.100Z,5.14
2022-10-19T21:52:47.341Z,5.17
2022-10-19T21:55:50.856Z,5.19
2022-10-19T21:58:54.188Z,5.16
2022-10-19T22:01:57.605Z,5.16
2022-10-19T22:05:00.002Z,5.06
2022-10-19T22:08:03.103Z,4.97
2022-10-19T22:11:07.645Z,5.01
2022-10-19T22:14:14.298Z,5.05
2022-10-19T22:17:17.513Z,4.95
2022-10-19T22:20:20.199Z,4.82
2022-10-19T22:27:27.312Z,4.69
2022-10-19T22:33:38.297Z,4.64
2022-10-19T22:36:40.803Z,4.64
2022-10-19T22:39:43.265Z,4.70
2022-10-19T22:42:45.728Z,4.65
2022-10-19T22:45:49.194Z,4.58
2022-10-19T22:48:51.681Z,4.55
2022-10-19T22:51:53.845Z,4.52
2022-10-19T22:54:56.555Z,4.57
2022-10-19T22:58:14.487Z,4.55
2022-10-19T23:01:17.080Z,4.47
2022-10-19T23:04:19.980Z,4.46
2022-10-19T23:07:22.550Z,4.44
2022-10-19T23:10:25.152Z,4.48
2022-10-19T23:13:28.677Z,4.45
2022-10-19T23:16:31.380Z,4.45
2022-10-19T23:19:34.087Z,4.28
2022-10-19T23:22:36.405Z,4.38
2022-10-19T23:25:38.751Z,4.31
2022-10-19T23:28:42.442Z,4.31
2022-10-19T23:31:48.234Z,4.33
2022-10-19T23:34:50.272Z,4.32
2022-10-19T23:37:52.376Z,4.34
2022-10-19T23:40:54.653Z,4.31
2022-10-19T23:43:59.565Z,4.25
2022-10-19T23:47:01.569Z,4.19
2022-10-19T23:50:04.002Z,4.20
2022-10-19T23:53:05.982Z,4.16
2022-10-19T23:56:23.251Z,4.10
2022-10-19T23:59:25.367Z,4.08
